Time;durP1;ratioP1;P1;durP2;ratioP2;P2;SDS_P1;SDS_P2;PMS_P1;PMS_P2;Temp;Humidity;BMP_temperature;BMP_pressure;BME280_temperature;BME280_humidity;BME280_pressure;Samples;Min_cycle;Max_cycle;Signal;HPM_P1;HPM_P2
2023/03/31 00:02:12;;;;;;;8.60;1.50;;;10.90;99.90;;;;;;5060975;28;20218;-80
2023/03/31 00:04:38;;;;;;;7.30;1.40;;;10.90;99.90;;;;;;5060246;28;20170;-79
2023/03/31 00:07:04;;;;;;;2.20;1.20;;;10.90;99.90;;;;;;5060602;28;20179;-79
2023/03/31 00:09:32;;;;;;;4.30;1.27;;;10.90;99.90;;;;;;5060228;28;20174;-80
2023/03/31 00:11:57;;;;;;;6.20;1.30;;;10.80;99.90;;;;;;5059028;28;20265;-79
2023/03/31 00:14:23;;;;;;;5.90;1.20;;;10.80;99.90;;;;;;5060156;28;20187;-79
2023/03/31 00:16:49;;;;;;;3.83;1.17;;;10.80;99.90;;;;;;5060301;28;20195;-80
2023/03/31 00:19:18;;;;;;;7.23;1.43;;;10.80;99.90;;;;;;5060735;28;20233;-79
2023/03/31 00:21:45;;;;;;;5.77;1.50;;;10.80;99.90;;;;;;5059011;28;20278;-80
2023/03/31 00:24:12;;;;;;;7.50;1.30;;;10.80;99.90;;;;;;5059382;28;20566;-80
2023/03/31 00:26:38;;;;;;;4.70;1.20;;;10.80;99.90;;;;;;5060106;28;20191;-80
2023/03/31 00:29:06;;;;;;;5.10;1.63;;;10.80;99.90;;;;;;5060197;28;20216;-79
2023/03/31 00:31:32;;;;;;;4.13;1.10;;;10.90;99.90;;;;;;5056457;28;20167;-79
2023/03/31 00:33:58;;;;;;;5.17;1.47;;;10.90;99.90;;;;;;5057059;28;20180;-80
2023/03/31 00:36:27;;;;;;;4.30;1.23;;;10.90;99.90;;;;;;5055835;28;20268;-79
2023/03/31 00:39:08;;;;;;;3.00;0.83;;;10.90;99.90;;;;;;5055494;28;20206;-80
2023/03/31 00:41:35;;;;;;;4.57;1.20;;;10.90;99.90;;;;;;5057094;28;20233;-79
2023/03/31 00:44:11;;;;;;;6.70;1.43;;;10.90;99.90;;;;;;5057451;28;20194;-80
2023/03/31 00:46:44;;;;;;;4.00;1.47;;;10.90;99.90;;;;;;5055566;28;20175;-80
2023/03/31 00:49:35;;;;;;;3.33;1.40;;;10.90;99.90;;;;;;5057103;28;20219;-79
2023/03/31 00:52:06;;;;;;;4.37;1.37;;;10.90;99.90;;;;;;5055806;28;20207;-80
2023/03/31 00:54:34;;;;;;;6.03;1.47;;;10.90;99.90;;;;;;5055643;28;20168;-80
2023/03/31 00:57:02;;;;;;;4.73;1.33;;;10.90;99.90;;;;;;5057021;28;20199;-79
2023/03/31 00:59:30;;;;;;;6.73;2.13;;;10.90;99.90;;;;;;5056753;28;20164;-79
2023/03/31 01:01:58;;;;;;;4.67;1.13;;;10.90;99.90;;;;;;5057078;28;20631;-80
2023/03/31 01:04:24;;;;;;;3.63;1.40;;;11.00;99.90;;;;;;5056985;28;20711;-79
2023/03/31 01:07:02;;;;;;;5.30;1.00;;;10.90;99.90;;;;;;5056843;28;20184;-80
2023/03/31 01:09:34;;;;;;;5.43;1.43;;;11.00;99.90;;;;;;5055603;28;20167;-80
2023/03/31 01:12:05;;;;;;;4.53;1.40;;;11.00;99.90;;;;;;5055477;28;20716;-80
2023/03/31 01:14:31;;;;;;;5.23;1.20;;;11.00;99.90;;;;;;5055413;28;20167;-79
2023/03/31 01:16:57;;;;;;;10.50;1.47;;;11.00;99.90;;;;;;5054862;28;20232;-80
2023/03/31 01:19:41;;;;;;;6.40;1.57;;;11.00;99.90;;;;;;5056833;28;20168;-80
2023/03/31 01:22:44;;;;;;;5.27;1.73;;;11.00;99.90;;;;;;5056401;28;20187;-80
2023/03/31 01:25:19;;;;;;;3.80;1.27;;;11.00;99.90;;;;;;5054859;28;20217;-80
2023/03/31 01:27:58;;;;;;;6.07;1.20;;;11.00;99.90;;;;;;5055525;28;20258;-80
2023/03/31 01:30:43;;;;;;;6.73;1.53;;;11.00;99.90;;;;;;5056142;28;20186;-80
2023/03/31 01:33:15;;;;;;;2.83;1.30;;;11.00;99.90;;;;;;5056162;28;20566;-79
2023/03/31 01:36:35;;;;;;;4.73;1.20;;;11.00;99.90;;;;;;5055281;28;20191;-79
2023/03/31 01:39:46;;;;;;;5.73;1.20;;;11.00;99.90;;;;;;4997567;28;20180;-80
2023/03/31 01:42:24;;;;;;;4.27;1.00;;;11.00;99.90;;;;;;5013981;28;20248;-80
2023/03/31 01:45:07;;;;;;;5.00;1.13;;;11.00;99.90;;;;;;5056190;28;20163;-79
2023/03/31 01:47:44;;;;;;;6.17;1.40;;;11.00;99.90;;;;;;5056907;28;20179;-79
2023/03/31 01:50:34;;;;;;;3.70;1.17;;;10.90;99.90;;;;;;5056337;28;20186;-80
2023/03/31 01:53:47;;;;;;;4.77;1.30;;;10.90;99.90;;;;;;5054515;28;20299;-79
2023/03/31 01:56:37;;;;;;;4.50;1.40;;;10.90;99.90;;;;;;5049277;28;20215;-80
2023/03/31 01:59:17;;;;;;;4.83;1.37;;;10.90;99.90;;;;;;5053832;28;20192;-79
2023/03/31 02:01:57;;;;;;;5.10;1.37;;;10.90;99.90;;;;;;5055572;28;20214;-80
2023/03/31 02:04:41;;;;;;;5.80;1.80;;;10.90;99.90;;;;;;5054687;28;20187;-79
2023/03/31 02:07:22;;;;;;;7.20;1.77;;;10.90;99.90;;;;;;5054688;28;20167;-79
2023/03/31 02:09:55;;;;;;;6.37;2.03;;;10.90;99.90;;;;;;5055406;28;20697;-80
2023/03/31 02:12:25;;;;;;;5.27;1.40;;;10.90;99.90;;;;;;5054127;28;20265;-80
2023/03/31 02:14:53;;;;;;;7.63;1.50;;;10.90;99.90;;;;;;5055923;28;20172;-80
2023/03/31 02:17:29;;;;;;;8.73;1.43;;;10.90;99.90;;;;;;5055213;28;20556;-79
2023/03/31 02:19:58;;;;;;;5.47;1.67;;;10.90;99.90;;;;;;5056105;28;20547;-80
2023/03/31 02:22:26;;;;;;;8.93;1.70;;;10.90;99.90;;;;;;5054458;28;20191;-80
2023/03/31 02:24:53;;;;;;;6.50;2.20;;;10.90;99.90;;;;;;5054229;28;20176;-80
2023/03/31 02:27:25;;;;;;;5.93;1.47;;;10.90;99.90;;;;;;5054163;28;20186;-81
2023/03/31 02:29:51;;;;;;;5.53;1.90;;;10.90;99.90;;;;;;5053583;28;20175;-81
2023/03/31 02:32:34;;;;;;;9.67;1.87;;;10.90;99.90;;;;;;5053471;28;20270;-81
2023/03/31 02:35:00;;;;;;;7.23;1.53;;;10.90;99.90;;;;;;5055068;28;20198;-80
2023/03/31 02:37:27;;;;;;;7.57;1.87;;;10.90;99.90;;;;;;5055076;28;20199;-80
2023/03/31 02:39:55;;;;;;;6.80;1.70;;;11.00;99.90;;;;;;5054462;28;20171;-80
2023/03/31 02:42:24;;;;;;;10.97;3.33;;;10.90;99.90;;;;;;5053950;28;20191;-81
2023/03/31 02:44:50;;;;;;;6.23;1.67;;;11.40;99.90;;;;;;5054166;28;20669;-80
2023/03/31 02:47:19;;;;;;;5.33;1.83;;;10.90;99.90;;;;;;5054743;28;20175;-80
2023/03/31 02:49:50;;;;;;;10.70;2.10;;;10.90;99.90;;;;;;5054338;28;20175;-81
2023/03/31 02:52:30;;;;;;;7.77;1.73;;;10.90;99.90;;;;;;5054938;28;20191;-79
2023/03/31 02:54:59;;;;;;;10.90;1.93;;;10.90;99.90;;;;;;5055708;28;20209;-81
2023/03/31 02:57:57;;;;;;;6.93;1.80;;;10.90;99.90;;;;;;5055419;28;20733;-81
2023/03/31 03:00:31;;;;;;;5.50;1.80;;;10.90;99.90;;;;;;5054565;28;20611;-80
2023/03/31 03:03:05;;;;;;;12.70;2.13;;;10.90;99.90;;;;;;5055672;28;20305;-80
2023/03/31 03:05:48;;;;;;;7.30;2.00;;;10.90;99.90;;;;;;5056565;28;20152;-80
2023/03/31 03:08:18;;;;;;;5.17;1.40;;;10.90;99.90;;;;;;5054507;28;20171;-80
2023/03/31 03:10:56;;;;;;;5.70;1.60;;;10.80;99.90;;;;;;5055543;28;20275;-80
2023/03/31 03:13:35;;;;;;;13.40;2.23;;;10.90;99.90;;;;;;5054596;28;20248;-80
2023/03/31 03:16:04;;;;;;;16.03;2.13;;;10.90;99.90;;;;;;5056551;28;20163;-80
2023/03/31 03:18:30;;;;;;;7.53;2.23;;;10.90;99.90;;;;;;5055567;28;20168;-80
2023/03/31 03:20:56;;;;;;;12.87;2.03;;;10.80;99.90;;;;;;5054837;28;20174;-81
2023/03/31 03:23:21;;;;;;;10.50;2.53;;;10.80;99.90;;;;;;5054983;28;20297;-80
2023/03/31 03:25:47;;;;;;;12.30;1.80;;;10.80;99.90;;;;;;5054419;28;20202;-80
2023/03/31 03:28:12;;;;;;;6.63;1.27;;;10.90;99.90;;;;;;5055730;28;20186;-80
2023/03/31 03:30:38;;;;;;;6.47;1.57;;;10.80;99.90;;;;;;5055804;28;20164;-80
2023/03/31 03:33:05;;;;;;;8.20;1.90;;;10.80;99.90;;;;;;5053532;28;20265;-80
2023/03/31 03:35:32;;;;;;;8.57;2.03;;;10.80;99.90;;;;;;5053169;28;20171;-80
2023/03/31 03:37:58;;;;;;;12.53;2.67;;;10.80;99.90;;;;;;5054685;28;20282;-80
2023/03/31 03:40:23;;;;;;;12.97;2.57;;;10.80;99.90;;;;;;5053810;28;20215;-80
2023/03/31 03:42:49;;;;;;;6.57;1.27;;;10.90;99.90;;;;;;5053767;28;20240;-80
2023/03/31 03:45:14;;;;;;;10.33;2.20;;;10.80;99.90;;;;;;5053605;28;20246;-79
2023/03/31 03:47:40;;;;;;;7.57;1.77;;;10.70;99.90;;;;;;5055171;28;20258;-80
2023/03/31 03:50:06;;;;;;;13.43;2.10;;;10.80;99.90;;;;;;5055043;28;20179;-80
2023/03/31 03:52:32;;;;;;;11.53;2.53;;;10.70;99.90;;;;;;5055178;28;20195;-80
2023/03/31 03:54:57;;;;;;;10.33;2.60;;;10.80;99.90;;;;;;5052901;28;20176;-80
2023/03/31 03:57:23;;;;;;;7.93;1.80;;;10.80;99.90;;;;;;5054959;28;20536;-80
2023/03/31 03:59:48;;;;;;;8.50;2.20;;;10.80;99.90;;;;;;5054658;28;20202;-80
2023/03/31 04:02:14;;;;;;;9.30;2.07;;;10.70;99.90;;;;;;5054426;28;20290;-80
2023/03/31 04:04:40;;;;;;;7.63;2.17;;;10.70;99.90;;;;;;5053697;28;20206;-80
2023/03/31 04:07:05;;;;;;;8.83;2.03;;;10.70;99.90;;;;;;5057887;28;20250;-80
2023/03/31 04:09:31;;;;;;;5.00;1.97;;;10.70;99.90;;;;;;5057435;28;20175;-80
2023/03/31 04:11:56;;;;;;;15.37;3.53;;;10.70;99.90;;;;;;5056865;28;20207;-80
2023/03/31 04:14:22;;;;;;;13.57;2.30;;;10.70;99.90;;;;;;5056771;28;20180;-80
2023/03/31 04:16:48;;;;;;;7.87;2.13;;;10.70;99.90;;;;;;5056788;28;20199;-80
2023/03/31 04:19:16;;;;;;;4.13;1.80;;;10.70;99.90;;;;;;5057538;28;20201;-80
2023/03/31 04:21:43;;;;;;;8.93;2.00;;;10.70;99.90;;;;;;5057299;28;20222;-81
2023/03/31 04:24:14;;;;;;;10.13;2.23;;;10.70;99.90;;;;;;5057615;28;20626;-80
2023/03/31 04:26:43;;;;;;;14.00;2.40;;;10.70;99.90;;;;;;5056547;28;20221;-80
2023/03/31 04:29:11;;;;;;;10.77;1.90;;;10.70;99.90;;;;;;5057095;28;20198;-80
2023/03/31 04:31:37;;;;;;;6.57;2.13;;;10.70;99.90;;;;;;5059080;28;20229;-81
2023/03/31 04:34:05;;;;;;;8.93;1.90;;;10.70;99.90;;;;;;5058735;28;20251;-81
2023/03/31 04:36:31;;;;;;;9.53;1.80;;;10.70;99.90;;;;;;5057703;28;20225;-81
2023/03/31 04:38:57;;;;;;;8.33;1.90;;;10.70;99.90;;;;;;5060105;28;20666;-80
2023/03/31 04:41:26;;;;;;;7.63;2.10;;;10.70;99.90;;;;;;5058269;28;20172;-82
2023/03/31 04:43:52;;;;;;;7.13;1.87;;;10.70;99.90;;;;;;5057824;28;20644;-82
2023/03/31 04:46:18;;;;;;;7.63;1.90;;;10.70;99.90;;;;;;5058471;28;20176;-81
2023/03/31 04:48:44;;;;;;;10.70;2.30;;;10.70;99.90;;;;;;5060267;28;20548;-82
2023/03/31 04:51:10;;;;;;;9.33;2.40;;;10.70;99.90;;;;;;5059769;28;20176;-81
2023/03/31 04:53:35;;;;;;;8.50;1.70;;;10.70;99.90;;;;;;5057871;28;20196;-81
2023/03/31 04:56:01;;;;;;;8.33;2.13;;;10.70;99.90;;;;;;5057242;28;20175;-81
2023/03/31 04:58:27;;;;;;;6.37;1.80;;;10.60;99.90;;;;;;5058787;28;20176;-81
2023/03/31 05:00:53;;;;;;;13.03;2.50;;;10.60;99.90;;;;;;5056855;28;20180;-81
2023/03/31 05:03:19;;;;;;;9.30;1.90;;;10.60;99.90;;;;;;5058612;28;20192;-83
2023/03/31 05:05:45;;;;;;;9.73;2.20;;;10.60;99.90;;;;;;5060033;28;20202;-83
2023/03/31 05:08:10;;;;;;;4.03;1.50;;;10.50;99.90;;;;;;5057359;28;20647;-77
2023/03/31 05:10:36;;;;;;;7.80;1.63;;;10.60;99.90;;;;;;5058717;28;20187;-81
2023/03/31 05:13:02;;;;;;;6.93;1.70;;;10.50;99.90;;;;;;5056907;28;20208;-80
2023/03/31 05:15:27;;;;;;;7.23;1.63;;;10.50;99.90;;;;;;5056896;28;20183;-80
2023/03/31 05:17:53;;;;;;;6.83;1.80;;;10.50;99.90;;;;;;5056571;28;20260;-80
2023/03/31 05:20:19;;;;;;;3.37;1.20;;;10.50;99.90;;;;;;5058687;28;20168;-79
2023/03/31 05:22:46;;;;;;;7.67;1.80;;;10.50;99.90;;;;;;5058224;28;20196;-80
2023/03/31 05:25:19;;;;;;;8.20;1.77;;;10.40;99.90;;;;;;5059051;28;20183;-80
2023/03/31 05:27:46;;;;;;;5.13;1.13;;;10.40;99.90;;;;;;5059606;28;20581;-80
2023/03/31 05:30:13;;;;;;;4.57;1.30;;;10.40;99.90;;;;;;5056889;28;20175;-79
2023/03/31 05:32:38;;;;;;;8.80;1.53;;;10.40;99.90;;;;;;5058305;28;20191;-79
2023/03/31 05:35:04;;;;;;;4.90;1.57;;;10.40;99.90;;;;;;5056679;28;20724;-79
2023/03/31 05:37:30;;;;;;;5.13;1.60;;;10.40;99.90;;;;;;5056635;28;20282;-80
2023/03/31 05:39:56;;;;;;;10.17;1.70;;;10.40;99.90;;;;;;5056683;28;20657;-79
2023/03/31 05:42:22;;;;;;;5.97;1.33;;;10.40;99.90;;;;;;5059011;28;20211;-80
2023/03/31 05:44:47;;;;;;;5.60;1.40;;;10.40;99.90;;;;;;5057701;28;20178;-78
2023/03/31 05:47:13;;;;;;;5.50;1.50;;;10.40;99.90;;;;;;5058708;28;20186;-79
2023/03/31 05:49:38;;;;;;;6.07;1.40;;;10.40;99.90;;;;;;5059115;28;20179;-79
2023/03/31 05:52:06;;;;;;;5.37;1.43;;;10.40;99.90;;;;;;5056662;28;20269;-79
2023/03/31 05:54:31;;;;;;;5.00;1.37;;;10.50;99.90;;;;;;5059618;28;20179;-79
2023/03/31 05:56:57;;;;;;;5.00;1.17;;;10.40;99.90;;;;;;5059030;28;20206;-80
2023/03/31 05:59:22;;;;;;;4.77;1.53;;;10.50;99.90;;;;;;5058200;28;20254;-80
2023/03/31 06:01:48;;;;;;;8.27;1.70;;;10.50;99.90;;;;;;5057348;28;20192;-80
2023/03/31 06:04:13;;;;;;;8.00;2.10;;;10.50;99.90;;;;;;5056200;28;20180;-80
2023/03/31 06:06:39;;;;;;;4.70;2.10;;;10.50;99.90;;;;;;5056592;28;20259;-80
2023/03/31 06:09:05;;;;;;;7.30;1.90;;;10.50;99.90;;;;;;5059598;28;20258;-82
2023/03/31 06:11:31;;;;;;;5.97;1.50;;;10.50;99.90;;;;;;5054248;28;20202;-81
2023/03/31 06:13:56;;;;;;;3.77;1.50;;;10.50;99.90;;;;;;5056318;28;20180;-80
2023/03/31 06:16:22;;;;;;;5.07;1.43;;;10.40;99.90;;;;;;5054768;28;20729;-80
2023/03/31 06:18:50;;;;;;;4.87;1.77;;;10.50;99.90;;;;;;5054721;28;20167;-80
2023/03/31 06:21:17;;;;;;;4.17;1.50;;;10.50;99.90;;;;;;5055742;28;20168;-81
2023/03/31 06:23:43;;;;;;;9.03;1.30;;;10.50;99.90;;;;;;5054559;28;20566;-80
2023/03/31 06:26:14;;;;;;;4.17;1.47;;;10.50;99.90;;;;;;5055788;28;20206;-80
2023/03/31 06:28:40;;;;;;;3.33;1.73;;;10.50;99.90;;;;;;5055144;28;20176;-79
2023/03/31 06:31:08;;;;;;;4.47;1.53;;;10.50;99.90;;;;;;5055648;28;20178;-80
2023/03/31 06:33:35;;;;;;;5.37;1.40;;;10.50;99.90;;;;;;5055342;28;20199;-79
2023/03/31 06:36:03;;;;;;;5.93;1.50;;;10.40;99.90;;;;;;5055160;28;20167;-81
2023/03/31 06:38:29;;;;;;;5.90;1.33;;;10.40;99.90;;;;;;5055443;28;20232;-81
2023/03/31 06:40:54;;;;;;;6.37;1.80;;;10.40;99.90;;;;;;5055390;28;20555;-80
2023/03/31 06:43:20;;;;;;;6.93;1.70;;;10.40;99.90;;;;;;5054961;28;20195;-81
2023/03/31 06:45:46;;;;;;;6.37;1.73;;;10.40;99.90;;;;;;5055334;28;20194;-82
2023/03/31 06:48:12;;;;;;;7.27;1.83;;;10.40;99.90;;;;;;5053806;28;20179;-81
2023/03/31 06:50:38;;;;;;;3.43;1.57;;;10.40;99.90;;;;;;5055189;28;20548;-81
2023/03/31 06:53:04;;;;;;;5.20;1.87;;;10.40;99.90;;;;;;5054265;28;20237;-81
2023/03/31 06:55:31;;;;;;;6.63;1.70;;;10.50;99.90;;;;;;5053882;28;20175;-81
2023/03/31 06:57:56;;;;;;;7.80;1.90;;;10.50;99.90;;;;;;5055716;28;20192;-81
2023/03/31 07:00:24;;;;;;;2.80;1.57;;;10.50;99.90;;;;;;5056489;28;20187;-81
2023/03/31 07:02:50;;;;;;;5.07;2.27;;;10.50;99.90;;;;;;5054664;28;20290;-81
2023/03/31 07:05:17;;;;;;;9.53;2.27;;;10.40;99.90;;;;;;5054953;28;20294;-82
2023/03/31 07:07:42;;;;;;;6.10;1.80;;;10.50;99.90;;;;;;5055443;28;20171;-82
2023/03/31 07:10:08;;;;;;;6.83;2.20;;;10.50;99.90;;;;;;5053472;28;20186;-81
2023/03/31 07:12:33;;;;;;;7.13;2.20;;;10.50;99.90;;;;;;5053088;28;20222;-82
2023/03/31 07:14:59;;;;;;;6.33;1.70;;;10.50;99.90;;;;;;5054499;28;20265;-82
2023/03/31 07:17:24;;;;;;;7.30;1.73;;;10.50;99.90;;;;;;5053825;28;20191;-83
2023/03/31 07:19:50;;;;;;;6.33;2.50;;;10.50;99.90;;;;;;5054816;28;20547;-82
2023/03/31 07:22:15;;;;;;;4.77;1.80;;;10.50;99.90;;;;;;5054891;28;20188;-82
2023/03/31 07:24:41;;;;;;;8.10;1.97;;;10.50;99.90;;;;;;5053152;28;20665;-82
2023/03/31 07:27:07;;;;;;;5.87;1.57;;;10.50;99.90;;;;;;5054215;28;20186;-82
2023/03/31 07:29:32;;;;;;;3.67;1.67;;;10.50;99.90;;;;;;5054712;28;20184;-82
2023/03/31 07:31:58;;;;;;;3.87;1.47;;;10.50;99.90;;;;;;5053300;28;20244;-82
2023/03/31 07:34:24;;;;;;;5.60;1.77;;;10.50;99.90;;;;;;5053834;28;20289;-83
2023/03/31 07:36:50;;;;;;;8.93;1.60;;;10.50;99.90;;;;;;5055056;28;20202;-81
2023/03/31 07:39:16;;;;;;;5.83;1.57;;;10.50;99.90;;;;;;5057130;28;20171;-81
2023/03/31 07:41:41;;;;;;;2.40;1.30;;;10.60;99.90;;;;;;5059763;28;20252;-82
2023/03/31 07:44:07;;;;;;;7.73;1.90;;;10.60;99.90;;;;;;5060758;28;20493;-81
2023/03/31 07:46:32;;;;;;;2.67;1.60;;;10.60;99.90;;;;;;5061326;28;20179;-81
2023/03/31 07:49:00;;;;;;;7.17;1.87;;;10.60;99.90;;;;;;5060668;28;20179;-81
2023/03/31 07:51:26;;;;;;;5.60;1.47;;;10.60;99.90;;;;;;5061288;28;20183;-81
2023/03/31 07:53:52;;;;;;;8.60;2.33;;;10.60;99.90;;;;;;5060387;28;20191;-81
2023/03/31 07:56:20;;;;;;;4.90;1.60;;;10.70;99.90;;;;;;5060587;28;20294;-81
2023/03/31 07:58:46;;;;;;;8.13;2.00;;;10.70;99.90;;;;;;5061530;28;20164;-81
2023/03/31 08:01:19;;;;;;;6.47;1.83;;;10.70;99.90;;;;;;5060539;28;20202;-81
2023/03/31 08:03:47;;;;;;;6.70;2.10;;;10.70;99.90;;;;;;5059408;28;20246;-81
2023/03/31 08:06:20;;;;;;;5.93;2.10;;;10.70;99.90;;;;;;5058701;28;20172;-81
2023/03/31 08:08:45;;;;;;;5.27;1.97;;;10.60;99.90;;;;;;5060430;28;20198;-80
2023/03/31 08:11:11;;;;;;;7.67;2.20;;;10.60;99.90;;;;;;5060159;28;20192;-82
2023/03/31 08:13:36;;;;;;;4.33;1.90;;;10.70;99.90;;;;;;5059230;28;20196;-81
2023/03/31 08:16:02;;;;;;;6.77;2.60;;;10.70;99.90;;;;;;5059221;28;20175;-80
2023/03/31 08:18:28;;;;;;;4.80;2.10;;;10.60;99.90;;;;;;5059713;28;20171;-82
2023/03/31 08:20:54;;;;;;;3.10;2.40;;;10.60;99.90;;;;;;5060001;28;20171;-81
2023/03/31 08:23:19;;;;;;;5.40;2.20;;;10.60;99.90;;;;;;5058674;28;20592;-81
2023/03/31 08:25:46;;;;;;;7.87;2.37;;;10.60;99.90;;;;;;5059570;28;20171;-82
2023/03/31 08:28:12;;;;;;;4.40;1.80;;;10.60;99.90;;;;;;5058197;28;20183;-81
2023/03/31 08:30:39;;;;;;;5.73;2.03;;;10.70;99.90;;;;;;5059306;28;20175;-81
2023/03/31 08:33:06;;;;;;;3.23;1.87;;;10.70;99.90;;;;;;5058162;28;20577;-81
2023/03/31 08:35:31;;;;;;;5.27;4.30;;;10.80;99.90;;;;;;5059450;28;20600;-81
2023/03/31 08:37:57;;;;;;;6.77;3.37;;;10.90;99.90;;;;;;5059184;28;20191;-83
2023/03/31 08:40:26;;;;;;;4.73;2.10;;;10.90;99.90;;;;;;5059440;28;20171;-81
2023/03/31 08:43:11;;;;;;;6.50;2.13;;;11.00;99.90;;;;;;5059417;28;20194;-81
2023/03/31 08:45:45;;;;;;;9.63;1.77;;;11.10;99.90;;;;;;5058917;28;20659;-80
2023/03/31 08:48:24;;;;;;;6.47;1.87;;;11.20;99.90;;;;;;5059002;28;20158;-80
2023/03/31 08:50:54;;;;;;;7.30;2.10;;;11.30;99.90;;;;;;5058945;28;20194;-80
2023/03/31 08:53:31;;;;;;;9.00;1.90;;;11.30;99.90;;;;;;5058247;28;20192;-81
2023/03/31 08:55:58;;;;;;;7.73;1.87;;;11.30;99.90;;;;;;5058982;28;20552;-80
2023/03/31 08:58:38;;;;;;;11.47;2.00;;;11.40;99.90;;;;;;5058330;28;20199;-81
2023/03/31 09:01:19;;;;;;;8.30;2.13;;;11.50;99.90;;;;;;5058022;28;20160;-80
2023/03/31 09:04:08;;;;;;;8.33;1.83;;;11.50;99.90;;;;;;5058439;28;20251;-81
2023/03/31 09:06:40;;;;;;;12.00;2.30;;;11.60;99.90;;;;;;5057835;28;20203;-80
2023/03/31 09:09:10;;;;;;;10.10;2.63;;;11.70;99.90;;;;;;5060526;28;20192;-81
2023/03/31 09:11:59;;;;;;;10.40;2.50;;;11.70;99.90;;;;;;5058160;28;20207;-84
2023/03/31 09:14:40;;;;;;;13.60;2.83;;;11.70;99.90;;;;;;5055998;28;20164;-84
2023/03/31 09:17:28;;;;;;;9.80;2.07;;;11.70;99.90;;;;;;5057244;28;20242;-84
2023/03/31 09:20:23;;;;;;;9.60;2.30;;;11.80;99.90;;;;;;5055955;28;20168;-84
2023/03/31 09:22:57;;;;;;;14.97;2.03;;;11.80;99.90;;;;;;5056022;28;20210;-84
2023/03/31 09:25:31;;;;;;;10.07;2.30;;;11.80;99.90;;;;;;5057529;28;20171;-83
2023/03/31 09:27:58;;;;;;;6.57;2.87;;;11.90;99.90;;;;;;5056930;28;20297;-82
2023/03/31 09:30:28;;;;;;;10.80;2.47;;;11.90;99.90;;;;;;5056946;28;20183;-83
2023/03/31 09:33:16;;;;;;;10.77;2.30;;;11.90;99.90;;;;;;5056960;28;20256;-81
2023/03/31 09:35:42;;;;;;;10.73;3.13;;;11.90;99.90;;;;;;5053897;28;20171;-86
2023/03/31 09:38:12;;;;;;;11.57;2.47;;;12.00;99.90;;;;;;5053689;28;20717;-85
2023/03/31 09:40:38;;;;;;;11.70;2.70;;;12.00;99.90;;;;;;5053559;28;20266;-85
2023/03/31 09:43:17;;;;;;;8.30;2.07;;;12.10;99.90;;;;;;5054672;28;20300;-85
2023/03/31 09:45:44;;;;;;;11.53;2.23;;;12.30;99.90;;;;;;5054859;28;20152;-84
2023/03/31 09:48:17;;;;;;;8.47;1.93;;;12.20;99.90;;;;;;5055499;28;20171;-83
2023/03/31 09:50:51;;;;;;;9.27;2.27;;;12.30;99.90;;;;;;5057241;28;20188;-83
2023/03/31 09:53:30;;;;;;;5.57;1.37;;;12.40;99.90;;;;;;5059447;28;20670;-83
2023/03/31 09:56:01;;;;;;;10.13;2.10;;;12.50;99.90;;;;;;5058577;28;20262;-83
2023/03/31 09:58:26;;;;;;;7.03;1.80;;;12.60;99.90;;;;;;5059118;28;20546;-83
2023/03/31 10:01:00;;;;;;;9.10;2.30;;;12.70;99.90;;;;;;5058742;28;20191;-81
2023/03/31 10:03:28;;;;;;;8.77;2.40;;;12.80;99.90;;;;;;5057650;28;20198;-83
2023/03/31 10:05:55;;;;;;;11.20;2.63;;;12.80;99.90;;;;;;5059581;28;20167;-82
2023/03/31 10:08:21;;;;;;;9.20;2.07;;;13.00;99.90;;;;;;5058734;28;20592;-83
2023/03/31 10:10:52;;;;;;;7.80;1.97;;;12.90;99.90;;;;;;5059385;28;20187;-82
2023/03/31 10:13:42;;;;;;;6.03;1.60;;;12.90;99.90;;;;;;5060566;28;20540;-81
2023/03/31 10:16:12;;;;;;;5.07;1.47;;;12.30;99.90;;;;;;5058404;28;20183;-82
2023/03/31 10:18:41;;;;;;;6.93;1.90;;;12.00;99.90;;;;;;5065808;28;20211;-82
2023/03/31 10:21:33;;;;;;;6.53;2.23;;;11.80;99.90;;;;;;5065667;28;20201;-81
2023/03/31 10:24:00;;;;;;;7.80;2.37;;;11.80;99.90;;;;;;5065141;28;20191;-81
2023/03/31 10:26:28;;;;;;;12.87;2.60;;;11.80;99.90;;;;;;5063965;28;20204;-80
2023/03/31 10:28:54;;;;;;;11.17;2.70;;;11.80;99.90;;;;;;5062289;28;20183;-81
2023/03/31 10:31:25;;;;;;;16.93;3.00;;;11.90;99.90;;;;;;5062191;28;20271;-81
2023/03/31 10:33:51;;;;;;;10.00;2.20;;;12.10;99.90;;;;;;5063852;28;20187;-81
2023/03/31 10:36:27;;;;;;;15.30;2.43;;;12.20;99.90;;;;;;5063013;28;20186;-81
2023/03/31 10:38:54;;;;;;;10.33;2.03;;;12.40;99.90;;;;;;5062709;28;20299;-81
2023/03/31 10:41:26;;;;;;;9.87;2.83;;;12.50;99.90;;;;;;5062365;28;20176;-81
2023/03/31 10:43:57;;;;;;;14.13;2.63;;;12.60;99.90;;;;;;5062225;28;20266;-80
2023/03/31 10:46:45;;;;;;;16.00;3.30;;;12.60;99.90;;;;;;5064339;28;20207;-80
2023/03/31 10:49:19;;;;;;;12.00;2.20;;;12.70;99.90;;;;;;5063858;28;20180;-79
2023/03/31 10:51:56;;;;;;;10.37;2.40;;;12.70;99.90;;;;;;5064781;28;20226;-79
2023/03/31 10:54:22;;;;;;;12.27;2.73;;;12.80;99.90;;;;;;5066090;28;20171;-80
2023/03/31 10:56:55;;;;;;;11.57;2.30;;;12.80;99.90;;;;;;5065303;28;20207;-81
2023/03/31 11:00:11;;;;;;;11.50;2.03;;;12.80;99.90;;;;;;5063534;28;20577;-80
2023/03/31 11:03:14;;;;;;;4.10;1.20;;;12.70;99.90;;;;;;5065294;28;20196;-79
2023/03/31 11:06:12;;;;;;;5.30;1.50;;;12.40;99.90;;;;;;5066051;28;20171;-81
2023/03/31 11:09:23;;;;;;;3.67;1.27;;;12.30;99.90;;;;;;5051974;28;20187;-80
2023/03/31 11:11:57;;;;;;;4.70;1.03;;;12.30;99.90;;;;;;5062134;28;20221;-80
2023/03/31 11:14:49;;;;;;;4.03;1.13;;;12.30;99.90;;;;;;5065101;28;20160;-80
2023/03/31 11:17:41;;;;;;;7.50;1.00;;;12.30;99.90;;;;;;5064895;28;20217;-79
2023/03/31 11:20:08;;;;;;;1.43;0.90;;;12.30;99.90;;;;;;5064935;28;20144;-80
2023/03/31 11:22:47;;;;;;;3.83;0.83;;;12.30;99.90;;;;;;5063954;28;20579;-79
2023/03/31 11:25:28;;;;;;;6.07;1.47;;;12.30;99.90;;;;;;5064523;28;20568;-80
2023/03/31 11:28:19;;;;;;;6.30;1.50;;;12.40;99.90;;;;;;5065102;28;20173;-80
2023/03/31 11:31:09;;;;;;;3.63;1.10;;;12.40;99.90;;;;;;5063800;28;20295;-80
2023/03/31 11:33:58;;;;;;;5.33;1.07;;;12.50;99.90;;;;;;5062893;28;20195;-80
2023/03/31 11:36:51;;;;;;;7.13;1.53;;;12.50;99.90;;;;;;5054780;28;20249;-80
2023/03/31 11:39:40;;;;;;;4.67;1.20;;;12.50;99.90;;;;;;5060975;28;20160;-79
2023/03/31 11:42:27;;;;;;;8.57;1.60;;;12.60;99.90;;;;;;5061086;28;20245;-80
2023/03/31 11:45:03;;;;;;;4.23;1.30;;;12.60;99.90;;;;;;5062313;28;20185;-80
2023/03/31 11:47:36;;;;;;;5.07;1.30;;;12.70;99.90;;;;;;5060455;28;20217;-79
2023/03/31 11:50:26;;;;;;;3.67;1.27;;;12.70;99.90;;;;;;5060789;28;20164;-80
2023/03/31 11:53:01;;;;;;;7.00;1.57;;;12.70;99.90;;;;;;5055393;28;20203;-81
2023/03/31 11:55:29;;;;;;;4.20;1.23;;;12.80;99.90;;;;;;5062617;28;20251;-82
2023/03/31 11:58:21;;;;;;;6.33;1.77;;;12.80;99.90;;;;;;5062657;28;20207;-82
2023/03/31 12:00:51;;;;;;;5.23;1.33;;;13.00;99.90;;;;;;5062067;28;20231;-81
2023/03/31 12:03:35;;;;;;;7.63;1.53;;;13.10;99.90;;;;;;5061187;28;20214;-82
2023/03/31 12:06:08;;;;;;;5.93;1.60;;;13.30;99.90;;;;;;5058817;28;20516;-82
2023/03/31 12:08:43;;;;;;;8.33;1.40;;;13.30;99.90;;;;;;5055864;28;20168;-82
2023/03/31 12:11:34;;;;;;;5.17;1.60;;;13.30;99.90;;;;;;5060210;28;20219;-81
2023/03/31 12:14:19;;;;;;;6.90;1.47;;;13.30;99.90;;;;;;5055682;28;20172;-81
2023/03/31 12:16:50;;;;;;;4.20;1.27;;;13.20;99.90;;;;;;5056900;28;20356;-82
2023/03/31 12:19:32;;;;;;;9.33;1.70;;;13.20;99.90;;;;;;5055374;28;20218;-82
2023/03/31 12:22:16;;;;;;;5.87;1.47;;;13.20;99.90;;;;;;5058302;28;20253;-82
2023/03/31 12:24:41;;;;;;;6.60;1.87;;;13.10;99.90;;;;;;5056357;28;20171;-83
2023/03/31 12:27:22;;;;;;;7.23;1.57;;;13.10;99.90;;;;;;5061510;28;20168;-84
2023/03/31 12:29:57;;;;;;;4.97;1.37;;;13.00;99.90;;;;;;5064486;28;20202;-83
2023/03/31 12:32:27;;;;;;;10.67;1.93;;;12.90;99.90;;;;;;5063986;28;20187;-82
2023/03/31 12:35:04;;;;;;;7.53;2.07;;;12.90;99.90;;;;;;5064001;28;20163;-82
2023/03/31 12:37:48;;;;;;;12.63;2.00;;;13.00;99.90;;;;;;5063468;28;20187;-82
2023/03/31 12:40:20;;;;;;;7.20;1.47;;;13.00;99.90;;;;;;5064469;28;20163;-82
2023/03/31 12:43:08;;;;;;;9.47;2.13;;;13.10;99.90;;;;;;5064112;28;20197;-82
2023/03/31 12:45:41;;;;;;;10.50;2.13;;;13.30;99.90;;;;;;5058738;28;20262;-82
2023/03/31 12:48:28;;;;;;;9.87;1.97;;;13.30;99.90;;;;;;5061626;28;20259;-82
2023/03/31 12:51:08;;;;;;;8.07;1.80;;;13.50;99.90;;;;;;5059998;28;20246;-82
2023/03/31 12:53:52;;;;;;;12.30;1.90;;;13.60;99.90;;;;;;5062621;28;20195;-82
2023/03/31 12:56:17;;;;;;;11.23;1.83;;;13.70;99.90;;;;;;5060040;28;20168;-82
2023/03/31 12:58:44;;;;;;;8.17;1.87;;;13.70;99.90;;;;;;5061678;28;20270;-82
2023/03/31 13:01:17;;;;;;;6.77;2.20;;;14.10;99.90;;;;;;5058071;28;20194;-82
2023/03/31 13:04:16;;;;;;;8.43;1.60;;;13.90;99.90;;;;;;5062157;28;20160;-82
2023/03/31 13:06:41;;;;;;;11.50;2.23;;;13.90;99.90;;;;;;5061253;28;20565;-82
2023/03/31 13:09:13;;;;;;;9.60;2.20;;;13.90;99.90;;;;;;5062727;28;20187;-81
2023/03/31 13:11:47;;;;;;;9.00;1.97;;;13.90;99.90;;;;;;5062668;28;20211;-82